Menlo, Kansas
Current Conditions -  °F | °C
As of 2:35 AM on Sunday 23 Nov 2014 (Local Time) from KCBK Reporting Station
Broken Clouds Broken Clouds  
Wind Chill: 36°   Ceiling: 12000
Heat Index: 43°   Visibility: 10mi
Dew Point: 32°   Wind: 14mph
Humidity: 66%   Direction: 350°N
Pressure: 29.44"   Gusts: NA
Location:  39.3723°N, 100.776°W
Report Text: KCBK 230835Z AUTO 35012KT 10SM BKN120 06/00 A2944 RMK AO2
Loading
Personal Weather Stations






























Interactive Weather Map New forecast layout! Learn more

10-Day Weather Forecast

Advertisements
Track Severe Weather on mobile